• Join FlightAware (Why Join?)
  • Login
  • US Flag 
Gobble Gobble! 
12:07PM EST


 

Airport Tracker/Info


-or-


 

Live Flight TrackerFlight Track Log ✈ N926FM ✈ 22-Apr-2013 ✈ KMHR - KSJC

Flight Track Log - Related Links

Times and Time Zones

All times are in EDT time to prevent confusion due to time zone crossing. See the N926FM flight status page for this flight to view local times or setup timezone preferences in your user account.

Time Position Orientation Groundspeed Altitude Reporting Facility
EDT Latitude Longitude Course Direction KTS MPH feet Rate Location/Type
12:00PM 38.4833 -121.3167 180° South 231 266 3,000  Level Northern Cal TRACON
12:01PM 38.4533 -121.2686 129° Southeast 258 297 4,800 2,820 Climbing Oakland Center
12:02PM 38.3781 -121.2064 147° Southeast 292 336 8,200 3,240 Climbing Oakland Center
12:02PM 38.3500 -121.2000 170° South 289 333 9,100 2,100 Climbing Northern Cal TRACON
12:03PM 38.2667 -121.1667 163° South 316 364 11,000 900 Climbing Northern Cal TRACON
12:04PM 38.1667 -121.1333 165° South 378 435 11,000  Level Northern Cal TRACON
12:05PM 38.1019 -121.1133 166° South 375 432 11,000  Level Oakland Center
12:06PM 37.9972 -121.0783 165° South 385 443 11,000 -300 Level Oakland Center
12:07PM 37.8922 -121.0442 166° South 388 447 10,500 -540 Descending Oakland Center
12:08PM 37.7861 -121.0233 171° South 390 449 10,000 -300 Descending Oakland Center
12:09PM 37.6861 -121.0511 192° South 375 432 9,900 -240 Descending Oakland Center
12:10PM 37.6019 -121.1222 214° Southwest 307 353 9,600 -360 Descending Oakland Center
12:11PM 37.5492 -121.1833 223° Southwest 293 337 9,200 -480 Descending Oakland Center
12:12PM 37.4906 -121.2514 223° Southwest 289 333 8,700 -600 Descending Oakland Center
12:13PM 37.4308 -121.3189 222° Southwest 288 331 8,100 -540 Descending Oakland Center
12:14PM 37.3611 -121.4014 223° Southwest 287 330 7,700 -540 Descending Oakland Center
12:15PM 37.3092 -121.4617 223° Southwest 279 321 7,000 -780 Descending Oakland Center
12:16PM 37.2731 -121.5453 242° Southwest 278 320 6,200 -960 Descending Oakland Center
12:17PM 37.2625 -121.6406 262° West 260 299 5,100 -1,260 Descending Oakland Center
12:18PM 37.2564 -121.7289 265° West 255 293 3,700 -1,260 Descending Oakland Center
12:19PM 37.2572 -121.8144 271° West 252 290 2,600 -960 Descending Oakland Center
12:20PM 37.2983 -121.8619 317° Northwest 215 247 1,800 -960 Descending Oakland Center
12:21PM 37.3331 -121.8981 320° Northwest 184 212 700 -840 Descending Oakland Center
12:22PM 37.3594 -121.9278 318° Northwest 148 170 100 -600 Descending Oakland Center
12:24PM 37.3627 -121.9291 North  Level Estimated